Time;durP1;ratioP1;P1;durP2;ratioP2;P2;SDS_P1;SDS_P2;PMS_P1;PMS_P2;Temp;Humidity;BMP_temperature;BMP_pressure;BME280_temperature;BME280_humidity;BME280_pressure;Samples;Min_cycle;Max_cycle;Signal;HPM_P1;HPM_P2
2024/03/31 00:59:12;;;;;;;29.20;5.20;;;19.10;65.00;;;;;;5070191;28;20491;-72
2024/03/31 01:01:37;;;;;;;32.83;6.10;;;19.00;65.00;;;;;;5071334;28;20176;-71
2024/03/31 01:04:03;;;;;;;36.63;6.22;;;19.00;65.00;;;;;;5071840;28;20032;-72
2024/03/31 01:06:29;;;;;;;30.27;6.03;;;19.00;65.30;;;;;;5053835;28;20349;-71
2024/03/31 01:08:54;;;;;;;33.17;5.70;;;18.90;65.50;;;;;;5071840;28;20044;-72
2024/03/31 01:11:21;;;;;;;31.08;6.30;;;18.90;65.60;;;;;;5071597;28;20041;-72
2024/03/31 01:13:48;;;;;;;33.95;5.90;;;19.00;65.60;;;;;;5071935;28;20028;-72
2024/03/31 01:16:14;;;;;;;41.35;6.25;;;18.90;65.70;;;;;;5070703;28;20036;-71
2024/03/31 01:18:40;;;;;;;38.00;5.50;;;18.90;65.70;;;;;;5071722;28;20119;-71
2024/03/31 01:21:07;;;;;;;41.88;6.93;;;18.90;66.00;;;;;;5072049;28;20075;-72
2024/03/31 01:23:57;;;;;;;33.78;6.00;;;18.90;66.10;;;;;;5071651;28;20025;-72
2024/03/31 01:26:23;;;;;;;39.65;5.90;;;18.90;65.80;;;;;;5071572;28;20032;-71
2024/03/31 01:28:48;;;;;;;29.58;5.80;;;18.90;66.00;;;;;;5071709;28;20036;-71
2024/03/31 01:31:15;;;;;;;36.17;6.90;;;18.90;66.10;;;;;;5071635;28;20029;-72
2024/03/31 01:33:40;;;;;;;33.20;5.93;;;18.90;66.30;;;;;;5071504;28;20041;-71
2024/03/31 01:36:06;;;;;;;35.10;5.60;;;18.90;66.10;;;;;;5071929;28;20036;-73
2024/03/31 01:38:32;;;;;;;36.05;7.15;;;18.90;66.20;;;;;;5071795;28;20111;-72
2024/03/31 01:40:58;;;;;;;27.13;6.13;;;19.00;66.10;;;;;;5072099;28;20067;-72
2024/03/31 01:43:23;;;;;;;37.50;6.47;;;18.90;66.10;;;;;;5072175;28;20032;-73
2024/03/31 01:45:51;;;;;;;37.22;6.18;;;18.90;66.10;;;;;;5071655;28;20504;-71
2024/03/31 01:48:17;;;;;;;38.53;6.68;;;18.90;66.40;;;;;;5070916;28;20043;-71
2024/03/31 01:50:43;;;;;;;33.25;6.32;;;18.90;66.50;;;;;;5071076;28;20060;-71
2024/03/31 01:53:09;;;;;;;36.92;5.68;;;18.90;66.60;;;;;;5071346;28;20036;-71
2024/03/31 01:55:35;;;;;;;36.88;6.80;;;18.90;67.50;;;;;;5071233;28;20037;-72
2024/03/31 01:58:00;;;;;;;30.33;6.13;;;18.90;67.20;;;;;;5071295;28;20361;-71
2024/03/31 02:00:27;;;;;;;38.10;6.03;;;18.90;67.20;;;;;;5087842;28;20056;-71
2024/03/31 02:02:52;;;;;;;39.90;6.72;;;18.90;67.30;;;;;;5091088;28;20125;-72
2024/03/31 02:05:18;;;;;;;37.53;7.13;;;18.90;67.40;;;;;;5090892;28;20229;-72
2024/03/31 02:07:44;;;;;;;37.20;6.63;;;18.90;67.30;;;;;;5091477;28;20020;-71
2024/03/31 02:10:10;;;;;;;43.67;6.53;;;18.90;67.60;;;;;;5091483;28;20139;-71
2024/03/31 02:12:37;;;;;;;43.00;6.80;;;18.90;67.70;;;;;;5091374;28;20024;-71
2024/03/31 02:15:03;;;;;;;46.03;7.13;;;18.90;67.70;;;;;;5091332;28;20043;-71
2024/03/31 02:17:29;;;;;;;53.58;7.82;;;18.90;67.90;;;;;;5091687;28;20036;-73
2024/03/31 02:19:55;;;;;;;43.25;6.88;;;18.90;68.00;;;;;;5091258;28;20370;-72
2024/03/31 02:22:20;;;;;;;36.53;6.72;;;18.90;68.00;;;;;;5091049;28;20078;-71
2024/03/31 02:24:46;;;;;;;42.03;6.78;;;18.90;68.10;;;;;;5088738;28;20044;-72
2024/03/31 02:27:12;;;;;;;44.15;7.00;;;18.90;68.30;;;;;;5092369;28;20024;-71
2024/03/31 02:29:39;;;;;;;41.13;7.60;;;18.90;68.20;;;;;;5094938;28;20044;-72
2024/03/31 02:32:05;;;;;;;31.17;6.50;;;18.90;68.40;;;;;;5094942;28;20036;-71
2024/03/31 02:34:31;;;;;;;41.25;6.88;;;18.90;68.70;;;;;;5094718;28;20090;-71
2024/03/31 02:36:57;;;;;;;32.60;6.22;;;18.90;68.70;;;;;;5094934;28;20055;-72
2024/03/31 02:39:23;;;;;;;40.50;7.88;;;18.90;68.90;;;;;;5094666;28;20056;-71
2024/03/31 02:41:50;;;;;;;38.15;7.90;;;18.90;69.00;;;;;;5094933;28;20032;-72
2024/03/31 02:44:16;;;;;;;41.03;6.90;;;18.80;69.20;;;;;;5094678;28;20495;-71
2024/03/31 02:46:42;;;;;;;38.72;7.90;;;18.80;69.30;;;;;;5094831;28;20028;-72
2024/03/31 02:49:08;;;;;;;36.47;6.35;;;18.80;69.30;;;;;;5076470;28;20461;-70
2024/03/31 02:51:34;;;;;;;45.40;7.15;;;18.80;69.30;;;;;;5094870;28;20095;-70
2024/03/31 02:54:00;;;;;;;39.28;7.00;;;18.80;69.70;;;;;;5094548;28;20108;-70
2024/03/31 02:56:26;;;;;;;41.88;6.90;;;18.70;69.50;;;;;;5094422;28;20123;-71
2024/03/31 02:58:51;;;;;;;41.20;7.75;;;18.70;69.80;;;;;;5094519;28;20024;-72
2024/03/31 03:01:17;;;;;;;42.35;6.93;;;18.70;69.80;;;;;;5094497;28;20044;-73
2024/03/31 03:03:44;;;;;;;42.85;7.80;;;18.60;69.80;;;;;;5094399;28;20105;-72
2024/03/31 03:06:10;;;;;;;42.47;7.70;;;18.60;69.80;;;;;;5094502;28;20330;-70
2024/03/31 03:08:36;;;;;;;44.10;8.25;;;18.50;70.10;;;;;;5081477;28;20159;-72
2024/03/31 03:11:03;;;;;;;44.92;7.78;;;18.50;70.30;;;;;;5073996;28;20099;-72
2024/03/31 03:13:29;;;;;;;49.95;8.50;;;18.50;70.30;;;;;;5074043;28;20111;-71
2024/03/31 03:15:54;;;;;;;47.70;8.02;;;18.40;70.50;;;;;;5073792;28;20560;-72
2024/03/31 03:18:20;;;;;;;53.97;8.10;;;18.40;70.40;;;;;;5073880;28;20104;-71
2024/03/31 03:20:46;;;;;;;49.13;7.75;;;18.30;70.70;;;;;;5074012;28;20024;-71
2024/03/31 03:23:12;;;;;;;35.60;7.47;;;18.30;70.80;;;;;;5073858;28;20395;-72
2024/03/31 03:25:38;;;;;;;44.83;8.05;;;18.30;70.90;;;;;;5073612;28;20041;-71
2024/03/31 03:28:04;;;;;;;45.70;8.73;;;18.30;70.80;;;;;;5073259;28;20111;-70
2024/03/31 03:30:30;;;;;;;45.03;7.30;;;18.30;71.00;;;;;;5073607;28;20070;-70
2024/03/31 03:32:56;;;;;;;40.88;7.18;;;18.30;71.00;;;;;;5073710;28;20048;-71
2024/03/31 03:35:22;;;;;;;48.88;8.52;;;18.30;71.00;;;;;;5073377;28;20086;-72
2024/03/31 03:37:48;;;;;;;50.42;7.78;;;18.30;70.90;;;;;;5055689;28;20050;-72
2024/03/31 03:40:13;;;;;;;59.53;7.90;;;18.30;71.00;;;;;;5072658;28;20104;-72
2024/03/31 03:42:39;;;;;;;38.40;6.53;;;18.30;71.10;;;;;;5073357;28;20082;-72
2024/03/31 03:45:06;;;;;;;51.78;8.27;;;18.30;70.90;;;;;;5073228;28;20044;-70
2024/03/31 03:47:32;;;;;;;46.08;9.27;;;18.30;70.80;;;;;;5073023;28;20439;-70
2024/03/31 03:49:57;;;;;;;53.60;7.72;;;18.40;71.00;;;;;;5073365;28;20028;-70
2024/03/31 03:52:23;;;;;;;49.70;8.05;;;18.40;70.80;;;;;;5073343;28;20167;-71
2024/03/31 03:54:49;;;;;;;37.65;7.80;;;18.40;70.80;;;;;;5073310;28;20105;-71
2024/03/31 03:57:15;;;;;;;47.65;7.72;;;18.40;70.90;;;;;;5073139;28;20055;-70
2024/03/31 03:59:40;;;;;;;43.08;7.80;;;18.50;71.00;;;;;;5072884;28;20505;-71
2024/03/31 04:02:07;;;;;;;47.10;8.77;;;18.40;70.80;;;;;;5072506;28;20064;-70
2024/03/31 04:04:33;;;;;;;46.63;8.82;;;18.50;71.00;;;;;;5072745;28;20386;-71
2024/03/31 04:07:00;;;;;;;45.40;8.18;;;18.50;71.20;;;;;;5072776;28;20036;-72
2024/03/31 04:09:26;;;;;;;41.80;8.48;;;18.50;71.20;;;;;;5072717;28;20040;-72
2024/03/31 04:11:52;;;;;;;49.33;9.30;;;18.50;71.20;;;;;;5072395;28;20033;-71
2024/03/31 04:14:17;;;;;;;52.28;8.77;;;18.50;71.40;;;;;;5072568;28;20032;-71
2024/03/31 04:16:43;;;;;;;45.95;8.48;;;18.50;71.50;;;;;;5072848;28;20032;-72
2024/03/31 04:19:09;;;;;;;47.25;8.18;;;18.50;71.50;;;;;;5092699;22;20060;-71
2024/03/31 04:21:34;;;;;;;38.90;7.90;;;18.50;71.60;;;;;;5093034;28;20028;-71
2024/03/31 04:24:02;;;;;;;48.78;9.10;;;18.50;71.70;;;;;;5092834;28;20108;-71
2024/03/31 04:26:28;;;;;;;39.10;8.20;;;18.50;71.80;;;;;;5092641;28;20394;-71
2024/03/31 04:28:54;;;;;;;45.38;9.05;;;18.60;71.90;;;;;;5092917;28;20032;-72
2024/03/31 04:31:19;;;;;;;45.35;7.65;;;18.60;71.80;;;;;;5092753;28;20028;-72
2024/03/31 04:33:45;;;;;;;47.58;8.50;;;18.60;71.90;;;;;;5092426;28;20161;-71
2024/03/31 04:36:12;;;;;;;41.85;8.40;;;18.60;71.70;;;;;;5092492;28;20064;-72
2024/03/31 04:38:38;;;;;;;51.95;7.55;;;18.60;71.60;;;;;;5092411;28;20024;-71
2024/03/31 04:41:04;;;;;;;51.22;8.43;;;18.60;71.70;;;;;;5092439;28;20126;-71
2024/03/31 04:43:30;;;;;;;57.90;8.50;;;18.60;71.50;;;;;;5092762;28;20387;-71
2024/03/31 04:46:04;;;;;;;53.20;8.50;;;18.60;71.60;;;;;;5092301;28;20040;-71
2024/03/31 04:48:30;;;;;;;47.05;8.27;;;18.60;72.20;;;;;;5092368;28;20043;-71
2024/03/31 04:50:56;;;;;;;50.25;8.50;;;18.60;71.30;;;;;;5091046;28;20113;-70
2024/03/31 04:53:22;;;;;;;58.63;9.68;;;18.60;71.60;;;;;;5083335;28;20145;-71
2024/03/31 04:55:47;;;;;;;51.25;7.78;;;18.60;72.30;;;;;;5073797;28;20071;-71
2024/03/31 04:58:13;;;;;;;44.95;6.95;;;18.60;71.60;;;;;;5092338;28;20495;-70
2024/03/31 05:00:39;;;;;;;53.20;9.07;;;18.50;71.50;;;;;;5092319;28;20043;-72
2024/03/31 05:03:04;;;;;;;59.72;8.50;;;18.50;71.80;;;;;;5092243;28;20468;-71
2024/03/31 05:05:35;;;;;;;59.83;9.60;;;18.50;71.80;;;;;;5073458;28;20094;-70
2024/03/31 05:08:00;;;;;;;59.92;8.73;;;18.50;72.10;;;;;;5071697;28;20032;-71
2024/03/31 05:10:26;;;;;;;49.85;8.90;;;18.50;72.10;;;;;;5071948;28;20040;-72
2024/03/31 05:12:52;;;;;;;57.55;8.27;;;18.50;72.20;;;;;;5071763;28;20025;-72
2024/03/31 05:15:17;;;;;;;54.75;10.10;;;18.50;72.30;;;;;;5071844;28;20032;-72
2024/03/31 05:17:43;;;;;;;47.53;8.10;;;18.50;72.40;;;;;;5071550;28;20033;-71
2024/03/31 05:20:09;;;;;;;57.53;9.38;;;18.60;72.60;;;;;;5071160;28;20056;-71
2024/03/31 05:22:35;;;;;;;47.10;9.70;;;18.60;72.80;;;;;;5071379;28;20074;-71
2024/03/31 05:25:00;;;;;;;55.03;9.80;;;18.60;72.60;;;;;;5053533;28;20041;-71
2024/03/31 05:27:26;;;;;;;61.20;9.43;;;18.60;72.50;;;;;;5071789;28;20029;-71
2024/03/31 05:29:52;;;;;;;54.70;9.40;;;18.70;72.70;;;;;;5071861;28;20059;-73
2024/03/31 05:32:17;;;;;;;56.33;9.60;;;18.70;72.60;;;;;;5071749;28;20041;-70
2024/03/31 05:34:43;;;;;;;50.25;9.77;;;18.80;72.50;;;;;;5071285;28;20032;-71
2024/03/31 05:37:09;;;;;;;48.28;9.32;;;18.80;72.50;;;;;;5071467;28;20040;-69
2024/03/31 05:39:35;;;;;;;51.78;8.98;;;18.80;72.30;;;;;;5071578;28;20040;-72
2024/03/31 05:42:00;;;;;;;61.50;10.27;;;18.90;72.50;;;;;;5071457;28;20028;-72
2024/03/31 05:44:26;;;;;;;49.97;9.85;;;19.00;72.20;;;;;;5071259;28;20045;-72
2024/03/31 05:46:51;;;;;;;61.60;10.93;;;19.10;72.10;;;;;;5071479;28;20057;-69
2024/03/31 05:49:17;;;;;;;57.25;9.57;;;19.20;72.00;;;;;;5071530;28;20492;-71
2024/03/31 05:51:43;;;;;;;50.95;9.63;;;19.30;72.00;;;;;;5071908;28;20059;-71
2024/03/31 05:54:09;;;;;;;49.97;9.07;;;19.30;71.80;;;;;;5071862;28;20036;-71
2024/03/31 05:56:34;;;;;;;65.35;10.98;;;19.40;71.90;;;;;;5071490;28;20047;-71
2024/03/31 05:59:02;;;;;;;50.47;9.07;;;19.50;71.80;;;;;;5071553;28;20432;-72
2024/03/31 06:01:28;;;;;;;53.28;10.32;;;19.50;71.80;;;;;;5071562;28;20029;-71
2024/03/31 06:03:54;;;;;;;61.55;10.70;;;19.50;71.90;;;;;;5075348;28;20040;-70
2024/03/31 06:06:19;;;;;;;54.58;9.55;;;19.50;71.80;;;;;;5075151;28;20039;-68
2024/03/31 06:08:45;;;;;;;54.92;9.90;;;19.50;71.80;;;;;;5074824;28;20445;-71
2024/03/31 06:11:11;;;;;;;58.95;9.68;;;19.60;71.90;;;;;;5075284;28;20041;-71
2024/03/31 06:13:36;;;;;;;46.85;9.02;;;19.60;72.10;;;;;;5075255;28;20029;-71
2024/03/31 06:16:02;;;;;;;68.45;11.25;;;19.70;71.90;;;;;;5074977;28;20037;-71
2024/03/31 06:18:28;;;;;;;66.05;10.80;;;19.80;72.00;;;;;;5075068;28;20083;-70
2024/03/31 06:20:54;;;;;;;66.20;10.68;;;20.00;72.00;;;;;;5075250;28;20087;-70
2024/03/31 06:23:19;;;;;;;53.05;10.27;;;20.10;71.70;;;;;;5075138;28;20181;-71
2024/03/31 06:25:58;;;;;;;60.88;10.80;;;20.10;71.60;;;;;;5074878;28;20536;-71
2024/03/31 06:28:24;;;;;;;59.22;10.45;;;20.20;71.80;;;;;;5074850;28;20158;-72
2024/03/31 06:30:50;;;;;;;59.67;10.25;;;20.10;71.60;;;;;;5078794;28;20111;-71
2024/03/31 06:33:16;;;;;;;49.08;9.95;;;20.20;71.90;;;;;;5092978;28;20024;-71
2024/03/31 06:35:41;;;;;;;54.75;10.32;;;20.30;71.90;;;;;;5099202;28;20116;-72
2024/03/31 06:38:07;;;;;;;68.82;11.95;;;20.40;71.80;;;;;;5092678;28;20032;-71
2024/03/31 06:40:35;;;;;;;58.83;10.40;;;20.60;71.60;;;;;;5093084;28;20107;-72
2024/03/31 06:43:03;;;;;;;57.03;10.48;;;20.70;71.90;;;;;;5085317;28;20047;-75
2024/03/31 06:45:29;;;;;;;55.53;10.32;;;20.90;71.50;;;;;;5082202;28;20064;-72
2024/03/31 06:47:55;;;;;;;63.35;10.98;;;21.20;71.20;;;;;;5093118;28;20055;-80
2024/03/31 06:50:21;;;;;;;52.65;11.15;;;21.50;70.90;;;;;;5093787;28;20043;-75
2024/03/31 06:52:47;;;;;;;68.10;11.45;;;21.70;70.70;;;;;;5090206;28;20032;-75
2024/03/31 06:55:13;;;;;;;59.67;11.20;;;22.00;70.10;;;;;;5095060;28;20488;-77
2024/03/31 06:57:39;;;;;;;65.35;11.45;;;22.30;69.80;;;;;;5094899;28;20032;-77
2024/03/31 07:00:06;;;;;;;60.42;10.82;;;22.50;68.60;;;;;;5095028;28;20039;-78
2024/03/31 07:02:32;;;;;;;55.45;11.85;;;22.80;68.20;;;;;;5096576;28;20036;-77
2024/03/31 07:04:58;;;;;;;57.78;11.25;;;23.20;67.30;;;;;;5100285;28;20445;-77
2024/03/31 07:07:24;;;;;;;70.60;10.43;;;23.30;66.40;;;;;;5103505;28;20499;-77
2024/03/31 07:09:50;;;;;;;54.45;11.13;;;23.50;65.80;;;;;;5095521;28;20062;-74
2024/03/31 07:12:15;;;;;;;59.05;10.40;;;23.70;65.30;;;;;;5073652;28;20063;-75
2024/03/31 07:14:41;;;;;;;54.67;10.65;;;23.70;65.10;;;;;;5097724;28;20043;-80
2024/03/31 07:17:07;;;;;;;54.47;11.52;;;23.60;65.70;;;;;;5100226;28;20028;-79
2024/03/31 07:19:32;;;;;;;68.88;12.13;;;23.30;65.40;;;;;;5100216;28;20044;-72
2024/03/31 07:21:58;;;;;;;55.85;11.98;;;22.90;65.70;;;;;;5107473;28;20050;-68
2024/03/31 07:24:24;;;;;;;65.68;11.90;;;22.70;66.50;;;;;;5094220;28;20090;-74
2024/03/31 07:26:49;;;;;;;64.35;10.40;;;22.50;66.70;;;;;;5075740;28;20459;-69
2024/03/31 07:29:15;;;;;;;67.82;11.18;;;22.50;66.80;;;;;;5093868;28;20029;-73
2024/03/31 07:31:41;;;;;;;70.65;12.23;;;22.50;67.00;;;;;;5097681;28;20028;-72
2024/03/31 07:34:07;;;;;;;62.33;11.55;;;22.60;66.90;;;;;;5098874;28;20024;-72
2024/03/31 07:36:32;;;;;;;62.60;11.93;;;22.50;66.70;;;;;;5096759;28;20145;-70
2024/03/31 07:38:58;;;;;;;71.28;13.30;;;22.50;66.50;;;;;;5086046;28;20481;-70
2024/03/31 07:41:24;;;;;;;75.22;12.25;;;22.50;66.50;;;;;;5093059;28;20046;-72
2024/03/31 07:43:49;;;;;;;77.10;12.15;;;22.50;66.50;;;;;;5088184;28;20424;-72
2024/03/31 07:46:15;;;;;;;68.32;11.95;;;22.50;66.40;;;;;;5086631;28;20032;-72
2024/03/31 07:48:41;;;;;;;67.68;14.18;;;22.60;66.30;;;;;;5093698;28;20032;-70
2024/03/31 07:51:06;;;;;;;64.13;12.10;;;22.70;66.10;;;;;;5093602;28;20032;-72
2024/03/31 07:53:32;;;;;;;72.07;13.18;;;22.70;65.70;;;;;;5089423;28;20028;-72
2024/03/31 07:55:58;;;;;;;78.72;13.15;;;22.60;66.30;;;;;;5093460;28;20028;-72
2024/03/31 07:58:24;;;;;;;62.78;12.70;;;22.60;66.30;;;;;;5093870;28;20036;-71
2024/03/31 08:00:52;;;;;;;66.70;12.25;;;22.70;66.00;;;;;;5093573;28;20031;-74
2024/03/31 08:03:17;;;;;;;78.07;12.35;;;22.60;66.00;;;;;;5088574;28;20040;-69
2024/03/31 08:05:43;;;;;;;80.45;13.35;;;22.60;66.40;;;;;;5085682;28;20056;-71
2024/03/31 08:08:10;;;;;;;73.95;12.93;;;22.50;66.60;;;;;;5093455;28;20803;-70
2024/03/31 08:10:35;;;;;;;82.30;13.25;;;22.40;66.50;;;;;;5093406;28;20114;-70
2024/03/31 08:13:01;;;;;;;93.05;14.90;;;22.40;67.00;;;;;;5091792;28;20111;-72
2024/03/31 08:15:27;;;;;;;71.85;13.40;;;22.40;67.10;;;;;;5090123;28;20036;-71
2024/03/31 08:17:54;;;;;;;83.57;13.70;;;22.30;66.20;;;;;;5092847;28;20039;-70
2024/03/31 08:20:20;;;;;;;68.45;13.15;;;22.30;66.20;;;;;;5093538;28;20404;-71
2024/03/31 08:22:45;;;;;;;75.90;12.52;;;22.20;66.30;;;;;;5089741;28;20048;-70
2024/03/31 08:25:11;;;;;;;88.85;13.73;;;22.10;66.40;;;;;;5091926;28;20051;-70
2024/03/31 08:27:38;;;;;;;70.68;13.65;;;22.10;66.70;;;;;;5074253;28;20048;-70
2024/03/31 08:30:04;;;;;;;81.57;13.63;;;22.10;66.40;;;;;;5091401;28;20107;-70
2024/03/31 08:32:30;;;;;;;82.18;13.38;;;22.10;66.80;;;;;;5081286;28;20032;-70
2024/03/31 08:34:56;;;;;;;72.80;14.13;;;21.90;66.50;;;;;;5090990;28;20462;-70
2024/03/31 08:37:21;;;;;;;77.00;15.15;;;21.90;66.80;;;;;;5092787;28;20024;-70
2024/03/31 08:39:47;;;;;;;86.30;15.63;;;21.80;66.80;;;;;;5091565;28;20403;-73
2024/03/31 08:42:31;;;;;;;81.43;13.43;;;21.80;66.90;;;;;;5091119;28;20028;-73
2024/03/31 08:44:58;;;;;;;85.68;16.30;;;21.80;66.90;;;;;;5091288;28;20040;-74
2024/03/31 08:47:34;;;;;;;76.95;14.35;;;21.80;66.90;;;;;;5092593;28;20032;-74
2024/03/31 08:50:00;;;;;;;75.80;17.48;;;21.80;66.80;;;;;;5092983;28;20043;-74
2024/03/31 08:52:26;;;;;;;83.80;15.70;;;21.80;67.10;;;;;;5092367;28;20036;-75
2024/03/31 08:54:55;;;;;;;93.05;14.85;;;21.80;67.00;;;;;;5091912;28;20081;-73
2024/03/31 08:57:21;;;;;;;90.57;15.15;;;21.80;67.30;;;;;;5091915;28;20032;-74
2024/03/31 08:59:48;;;;;;;81.50;14.32;;;21.80;67.40;;;;;;5092513;28;20182;-73
2024/03/31 09:02:22;;;;;;;74.95;14.07;;;21.80;67.60;;;;;;5092371;28;20463;-73
2024/03/31 09:04:47;;;;;;;78.60;12.60;;;21.80;67.50;;;;;;5092393;28;20043;-74
2024/03/31 09:07:13;;;;;;;62.45;12.48;;;21.80;67.80;;;;;;5091956;28;20028;-74
2024/03/31 09:09:42;;;;;;;67.40;13.20;;;21.80;67.90;;;;;;5092345;28;20035;-72
2024/03/31 09:12:09;;;;;;;64.95;12.90;;;21.80;68.90;;;;;;5092356;28;20411;-74
2024/03/31 09:14:37;;;;;;;68.10;13.43;;;21.70;68.50;;;;;;5092298;28;20040;-74
2024/03/31 09:17:07;;;;;;;71.75;13.43;;;21.80;69.00;;;;;;5092427;28;20067;-74
2024/03/31 09:19:32;;;;;;;64.68;12.50;;;21.70;68.90;;;;;;5092229;28;20052;-74
2024/03/31 09:21:58;;;;;;;71.13;12.70;;;21.70;68.60;;;;;;5092250;28;20044;-74
2024/03/31 09:24:24;;;;;;;81.38;13.02;;;21.70;69.10;;;;;;5092123;28;20044;-74
2024/03/31 09:26:50;;;;;;;71.50;14.05;;;21.70;68.10;;;;;;5074149;28;20032;-73
2024/03/31 09:29:16;;;;;;;64.18;13.02;;;21.80;68.10;;;;;;5092240;28;20450;-73
2024/03/31 09:31:42;;;;;;;67.25;12.85;;;21.80;68.10;;;;;;5092424;28;20028;-74
2024/03/31 09:34:07;;;;;;;90.00;14.05;;;21.80;67.90;;;;;;5092290;28;20446;-73
2024/03/31 09:36:37;;;;;;;63.80;12.88;;;21.90;68.10;;;;;;5091813;28;20114;-73
2024/03/31 09:39:03;;;;;;;78.65;13.88;;;21.90;68.00;;;;;;5095998;28;20028;-72
2024/03/31 09:41:34;;;;;;;73.93;13.27;;;22.00;68.20;;;;;;5095951;28;20042;-73
2024/03/31 09:44:00;;;;;;;87.10;14.43;;;22.10;68.40;;;;;;5096000;28;20119;-74
2024/03/31 09:46:27;;;;;;;80.53;13.70;;;22.10;68.20;;;;;;5095918;28;20021;-74
2024/03/31 09:49:02;;;;;;;66.78;12.63;;;22.10;68.40;;;;;;5095481;28;20036;-73
2024/03/31 09:51:33;;;;;;;72.80;12.30;;;22.20;68.60;;;;;;5095754;28;20028;-73
2024/03/31 09:54:04;;;;;;;73.20;13.43;;;22.20;68.60;;;;;;5096170;28;20036;-75
2024/03/31 09:56:40;;;;;;;80.50;13.93;;;22.30;68.60;;;;;;5096054;28;20032;-74
2024/03/31 09:59:10;;;;;;;79.40;12.98;;;22.30;68.50;;;;;;5096190;28;20043;-75
2024/03/31 10:01:39;;;;;;;72.85;12.93;;;22.30;68.70;;;;;;5095759;28;20028;-74
2024/03/31 10:04:23;;;;;;;70.57;13.93;;;22.40;68.40;;;;;;5095377;28;20028;-73
2024/03/31 10:06:48;;;;;;;;;;;22.40;68.50;;;;;;5096119;28;20040;-73
2024/03/31 10:09:16;;;;;;;70.28;12.07;;;22.50;69.40;;;;;;5095929;28;20295;-75
2024/03/31 10:11:42;;;;;;;76.70;12.80;;;22.50;68.10;;;;;;5095366;28;20048;-74
2024/03/31 10:14:09;;;;;;;82.05;14.15;;;22.60;68.10;;;;;;5095537;28;20078;-76
2024/03/31 10:16:37;;;;;;;78.63;13.95;;;22.60;67.80;;;;;;5095799;28;20029;-72
